createdAt,value
2019-04-23T00:01:49.223Z,4.83
2019-04-23T00:04:23.984Z,5.50
2019-04-23T00:09:35.476Z,5.03
2019-04-23T00:12:12.887Z,5.00
2019-04-23T00:14:56.560Z,3.25
2019-04-23T00:17:24.871Z,5.25
2019-04-23T00:19:50.344Z,7.97
2019-04-23T00:22:29.840Z,5.95
2019-04-23T00:25:34.486Z,11.70
2019-04-23T00:27:37.239Z,5.33
2019-04-23T00:30:04.369Z,4.12
2019-04-23T00:35:27.344Z,6.72
2019-04-23T00:37:39.372Z,6.00
2019-04-23T00:40:13.254Z,7.92
2019-04-23T00:42:47.408Z,7.28
2019-04-23T00:45:16.875Z,5.22
2019-04-23T00:47:51.445Z,4.37
2019-04-23T00:50:28.452Z,5.62
2019-04-23T00:52:57.702Z,6.53
2019-04-23T00:55:28.197Z,6.28
2019-04-23T00:58:08.618Z,6.17
2019-04-23T01:05:41.085Z,5.10
2019-04-23T01:13:43.869Z,4.30
2019-04-23T01:16:09.927Z,4.50
2019-04-23T01:18:58.159Z,4.58
2019-04-23T01:21:13.717Z,6.00
2019-04-23T01:24:06.424Z,7.08
2019-04-23T01:27:35.428Z,10.43
2019-04-23T01:29:52.407Z,5.45
2019-04-23T01:32:20.837Z,4.20
2019-04-23T01:35:11.350Z,4.85
2019-04-23T01:37:30.381Z,5.08
2019-04-23T01:40:10.104Z,4.40
2019-04-23T01:45:14.538Z,5.90
2019-04-23T01:50:17.327Z,5.47
2019-04-23T01:52:55.116Z,4.90
2019-04-23T01:55:24.435Z,4.80
2019-04-23T01:57:56.337Z,6.78
2019-04-23T02:00:22.468Z,11.28
2019-04-23T02:02:55.485Z,8.03
2019-04-23T02:05:32.571Z,6.97
2019-04-23T02:07:57.014Z,9.25
2019-04-23T02:13:01.874Z,11.05
2019-04-23T02:15:36.279Z,5.90
2019-04-23T02:18:11.498Z,8.80
2019-04-23T02:20:42.956Z,10.38
2019-04-23T02:23:33.209Z,5.72
2019-04-23T02:26:02.707Z,10.05
2019-04-23T02:28:32.910Z,6.75
2019-04-23T02:33:43.980Z,7.60
2019-04-23T02:36:07.886Z,7.65
2019-04-23T02:41:16.549Z,7.20
2019-04-23T02:43:59.048Z,6.05
2019-04-23T02:46:31.326Z,6.92
2019-04-23T02:48:56.325Z,7.37
2019-04-23T02:51:39.620Z,8.38
2019-04-23T02:54:15.622Z,5.72
2019-04-23T02:56:37.475Z,6.95
2019-04-23T02:59:10.247Z,9.30
2019-04-23T03:01:29.897Z,9.80
2019-04-23T03:09:23.612Z,9.05
2019-04-23T03:11:52.427Z,8.18
2019-04-23T03:19:38.385Z,8.85
2019-04-23T03:22:35.519Z,6.12
2019-04-23T03:25:17.176Z,7.80
2019-04-23T03:27:40.845Z,9.85
2019-04-23T03:30:26.478Z,9.05
2019-04-23T03:35:09.805Z,7.10
2019-04-23T03:38:00.800Z,7.92
2019-04-23T03:40:21.191Z,8.05
2019-04-23T03:43:18.943Z,6.87
2019-04-23T03:45:47.596Z,7.00
2019-04-23T03:48:06.296Z,7.65
2019-04-23T03:50:35.850Z,5.83
2019-04-23T03:53:18.450Z,12.43
2019-04-23T03:55:50.993Z,10.05
2019-04-23T03:58:21.158Z,15.30
2019-04-23T04:03:42.527Z,6.10
2019-04-23T04:06:03.403Z,10.65
2019-04-23T04:08:25.942Z,9.38
2019-04-23T04:11:09.388Z,8.65
2019-04-23T04:13:30.726Z,7.90
2019-04-23T04:16:01.345Z,7.53
2019-04-23T04:23:57.699Z,8.10
2019-04-23T04:26:32.694Z,7.80
2019-04-23T04:28:51.062Z,8.28
2019-04-23T04:31:20.929Z,11.68
2019-04-23T04:34:21.517Z,8.03
2019-04-23T04:41:40.663Z,11.55
2019-04-23T04:44:17.134Z,7.53
2019-04-23T04:46:39.065Z,9.25
2019-04-23T04:51:51.489Z,8.45
2019-04-23T04:56:42.561Z,11.00
2019-04-23T04:59:18.165Z,10.90
2019-04-23T05:04:28.517Z,10.80
2019-04-23T05:12:11.059Z,8.38
2019-04-23T05:14:43.538Z,8.53
2019-04-23T05:17:15.663Z,8.80
2019-04-23T05:24:46.654Z,9.93
2019-04-23T05:27:20.355Z,9.95
2019-04-23T05:30:06.068Z,11.08
2019-04-23T05:32:26.462Z,10.58
2019-04-23T05:34:55.795Z,11.97
2019-04-23T05:37:40.520Z,8.45
2019-04-23T05:40:08.738Z,9.40
2019-04-23T05:42:37.943Z,7.12
2019-04-23T05:45:02.142Z,10.05
2019-04-23T05:47:36.318Z,7.30
2019-04-23T05:50:18.822Z,11.40
2019-04-23T05:52:45.920Z,9.10
2019-04-23T05:55:37.825Z,11.05
2019-04-23T05:57:55.563Z,9.33
2019-04-23T06:05:34.161Z,11.00
2019-04-23T06:08:03.526Z,7.42
2019-04-23T06:10:39.552Z,14.87
2019-04-23T06:13:04.785Z,7.62
2019-04-23T06:15:36.879Z,10.75
2019-04-23T06:18:20.083Z,12.60
2019-04-23T06:20:49.280Z,7.35
2019-04-23T06:23:26.712Z,10.30
2019-04-23T06:28:21.196Z,8.98
2019-04-23T06:31:02.283Z,10.58
2019-04-23T06:33:25.766Z,9.58
2019-04-23T06:36:05.436Z,8.60
2019-04-23T06:41:09.976Z,10.60
2019-04-23T06:43:49.969Z,9.85
2019-04-23T06:46:15.058Z,8.28
2019-04-23T06:48:47.060Z,12.53
2019-04-23T06:51:27.507Z,10.05
2019-04-23T06:53:55.071Z,10.10
2019-04-23T06:56:26.839Z,10.15
2019-04-23T06:59:02.621Z,10.48
2019-04-23T07:01:27.657Z,13.83
2019-04-23T07:04:05.633Z,8.83
2019-04-23T07:06:58.110Z,15.18
2019-04-23T07:14:02.583Z,9.48
2019-04-23T07:16:48.807Z,7.37
2019-04-23T07:21:50.823Z,9.98
2019-04-23T07:24:18.163Z,9.70
2019-04-23T07:26:45.475Z,8.85
2019-04-23T07:34:31.911Z,10.25
2019-04-23T07:40:11.421Z,10.13
2019-04-23T07:42:39.514Z,9.20
2019-04-23T07:45:25.772Z,10.05
2019-04-23T07:48:11.224Z,10.13
2019-04-23T07:50:45.614Z,9.95
2019-04-23T07:55:58.006Z,10.65
2019-04-23T07:58:23.421Z,9.28
2019-04-23T08:00:48.880Z,13.78
2019-04-23T08:05:55.318Z,12.23
2019-04-23T08:08:30.294Z,8.55
2019-04-23T08:11:30.922Z,10.90
2019-04-23T08:13:53.345Z,14.45
2019-04-23T08:16:28.161Z,7.67
2019-04-23T08:21:27.593Z,10.93
2019-04-23T08:27:04.617Z,9.00
2019-04-23T08:29:36.138Z,10.28
2019-04-23T08:32:18.997Z,9.08
2019-04-23T08:37:36.456Z,14.03
2019-04-23T08:39:52.139Z,12.23
2019-04-23T08:48:21.811Z,11.45
2019-04-23T08:50:46.691Z,9.40
2019-04-23T08:58:36.843Z,11.70
2019-04-23T09:01:05.648Z,8.88
2019-04-23T09:03:30.135Z,8.45
2019-04-23T09:06:08.040Z,7.33
2019-04-23T09:08:32.787Z,11.00
2019-04-23T09:11:19.505Z,7.35
2019-04-23T09:16:08.425Z,11.55
2019-04-23T09:18:47.332Z,10.85
2019-04-23T09:24:00.331Z,8.28
2019-04-23T09:26:33.262Z,8.43
2019-04-23T09:34:57.038Z,9.70
2019-04-23T09:37:42.205Z,7.08
2019-04-23T09:40:39.049Z,7.57
2019-04-23T09:43:13.833Z,6.50
2019-04-23T09:46:14.562Z,8.48
2019-04-23T09:48:44.211Z,9.08
2019-04-23T09:51:21.016Z,7.83
2019-04-23T09:53:48.828Z,8.83
2019-04-23T09:56:14.515Z,11.95
2019-04-23T09:58:51.733Z,9.23
2019-04-23T10:03:50.965Z,10.95
2019-04-23T10:06:19.080Z,7.67
2019-04-23T10:08:50.031Z,12.23
2019-04-23T10:11:16.068Z,9.83
2019-04-23T10:13:48.389Z,7.12
2019-04-23T10:16:21.530Z,7.33
2019-04-23T10:18:51.168Z,8.30
2019-04-23T10:21:23.606Z,11.65
2019-04-23T10:23:55.052Z,8.83
2019-04-23T10:26:25.955Z,9.30
2019-04-23T10:29:02.461Z,7.83
2019-04-23T10:31:33.463Z,6.78
2019-04-23T10:34:04.458Z,9.30
2019-04-23T10:36:40.636Z,9.73
2019-04-23T10:39:20.776Z,6.17
2019-04-23T10:41:46.336Z,8.43
2019-04-23T10:44:35.528Z,8.43
2019-04-23T10:47:59.430Z,6.12
2019-04-23T10:50:51.185Z,9.03
2019-04-23T10:53:29.687Z,7.65
2019-04-23T10:56:18.369Z,8.53
2019-04-23T10:58:35.185Z,7.60
2019-04-23T11:01:19.341Z,8.35
2019-04-23T11:03:49.254Z,8.05
2019-04-23T11:06:17.731Z,14.60
2019-04-23T11:08:53.448Z,7.60
2019-04-23T11:11:25.548Z,8.55
2019-04-23T11:14:00.137Z,8.25
2019-04-23T11:19:11.294Z,7.03
2019-04-23T11:24:23.663Z,10.23
2019-04-23T11:26:42.390Z,8.40
2019-04-23T11:29:23.781Z,7.30
2019-04-23T11:34:34.181Z,9.38
2019-04-23T11:39:32.533Z,8.65
2019-04-23T11:47:09.503Z,11.20
2019-04-23T11:49:53.719Z,8.63
2019-04-23T11:50:46.443Z,10.45
2019-04-23T11:52:07.797Z,8.75
2019-04-23T11:54:35.540Z,8.85
2019-04-23T11:59:43.605Z,7.22
2019-04-23T12:02:40.284Z,7.35
2019-04-23T12:05:35.449Z,7.87
2019-04-23T12:14:10.463Z,8.18
2019-04-23T12:16:38.447Z,7.50
2019-04-23T12:19:32.873Z,7.10
2019-04-23T12:21:45.424Z,10.70
2019-04-23T12:26:53.881Z,7.60
2019-04-23T12:29:30.402Z,9.20
2019-04-23T12:32:32.356Z,7.92
2019-04-23T12:34:52.922Z,8.98
2019-04-23T12:37:29.300Z,8.38
2019-04-23T12:40:03.211Z,10.80
2019-04-23T12:45:09.595Z,11.22
2019-04-23T12:47:46.351Z,7.70
2019-04-23T12:50:31.042Z,6.92
2019-04-23T12:57:42.441Z,10.50
2019-04-23T13:00:19.574Z,8.53
2019-04-23T13:02:55.539Z,6.95
2019-04-23T13:05:15.827Z,8.73
2019-04-23T13:07:52.046Z,13.17
2019-04-23T13:10:30.270Z,11.15
2019-04-23T13:15:33.425Z,19.32
2019-04-23T13:18:03.016Z,12.63
2019-04-23T13:20:33.877Z,9.70
2019-04-23T13:23:19.816Z,7.50
2019-04-23T13:28:28.069Z,12.53
2019-04-23T13:38:38.270Z,13.10
2019-04-23T13:43:40.541Z,6.75
2019-04-23T13:46:13.848Z,13.98
2019-04-23T13:48:52.509Z,13.03
2019-04-23T13:51:20.814Z,12.28
2019-04-23T13:53:53.383Z,11.45
2019-04-23T13:56:31.587Z,34.90
2019-04-23T13:58:59.920Z,14.25
2019-04-23T14:01:28.864Z,16.97
2019-04-23T14:04:04.745Z,12.60
2019-04-23T14:06:36.478Z,14.23
2019-04-23T14:09:14.628Z,10.10
2019-04-23T14:11:34.698Z,12.93
2019-04-23T14:14:25.257Z,12.13
2019-04-23T14:19:21.459Z,17.45
2019-04-23T14:22:13.723Z,11.43
2019-04-23T14:24:32.374Z,12.95
2019-04-23T14:26:59.187Z,12.75
2019-04-23T14:29:38.463Z,12.63
2019-04-23T14:32:10.489Z,11.10
2019-04-23T14:34:46.321Z,6.37
2019-04-23T14:37:12.133Z,10.32
2019-04-23T14:42:26.516Z,15.65
2019-04-23T14:45:08.089Z,13.25
2019-04-23T14:50:24.060Z,14.18
2019-04-23T14:52:50.382Z,15.60
2019-04-23T14:55:41.775Z,14.58
2019-04-23T14:57:52.795Z,9.28
2019-04-23T15:00:18.604Z,13.17
2019-04-23T15:02:52.108Z,17.02
2019-04-23T15:05:27.988Z,11.73
2019-04-23T15:07:52.144Z,15.98
2019-04-23T15:13:00.015Z,11.08
2019-04-23T15:15:35.630Z,19.85
2019-04-23T15:18:14.175Z,14.10
2019-04-23T15:21:15.748Z,17.50
2019-04-23T15:23:41.802Z,11.57
2019-04-23T15:26:57.177Z,11.12
2019-04-23T15:28:09.029Z,15.80
2019-04-23T15:31:09.598Z,17.40
2019-04-23T15:33:51.870Z,11.87
2019-04-23T15:41:24.971Z,17.70
2019-04-23T15:43:57.766Z,12.03
2019-04-23T15:46:26.800Z,13.48
2019-04-23T15:49:07.688Z,18.80
2019-04-23T15:54:02.580Z,11.93
2019-04-23T15:56:45.189Z,17.35
2019-04-23T16:03:45.059Z,14.07
2019-04-23T16:06:21.459Z,15.28
2019-04-23T16:17:04.921Z,24.47
2019-04-23T16:19:29.125Z,18.55
2019-04-23T16:22:12.995Z,15.72
2019-04-23T16:24:37.804Z,11.75
2019-04-23T16:27:11.093Z,10.20
2019-04-23T16:30:10.793Z,13.40
2019-04-23T16:32:31.356Z,15.72
2019-04-23T16:35:03.261Z,13.90
2019-04-23T16:37:29.297Z,11.35
2019-04-23T16:40:04.507Z,8.03
2019-04-23T16:42:38.392Z,13.95
2019-04-23T16:47:36.884Z,14.87
2019-04-23T16:50:13.128Z,20.55
2019-04-23T16:52:43.898Z,13.48
2019-04-23T16:55:29.450Z,16.12
2019-04-23T17:02:56.071Z,16.10
2019-04-23T17:05:24.924Z,15.43
2019-04-23T17:08:24.847Z,11.25
2019-04-23T17:10:38.816Z,12.00
2019-04-23T17:13:05.058Z,11.20
2019-04-23T17:15:46.413Z,14.25
2019-04-23T17:18:11.950Z,16.02
2019-04-23T17:20:46.779Z,15.43
2019-04-23T17:23:25.567Z,12.47
2019-04-23T17:25:51.875Z,11.55
2019-04-23T17:28:21.973Z,15.80
2019-04-23T17:31:19.245Z,14.53
2019-04-23T17:33:38.301Z,12.98
2019-04-23T17:36:28.391Z,11.63
2019-04-23T17:42:08.283Z,12.40
2019-04-23T17:47:14.061Z,17.52
2019-04-23T17:49:51.085Z,12.60
2019-04-23T17:52:21.896Z,15.72
2019-04-23T17:57:26.317Z,15.35
2019-04-23T18:00:11.469Z,17.62
2019-04-23T18:02:55.605Z,14.53
2019-04-23T18:05:08.214Z,13.98
2019-04-23T18:07:44.000Z,17.27
2019-04-23T18:10:17.556Z,13.40
2019-04-23T18:15:35.123Z,12.43
2019-04-23T18:17:54.747Z,16.77
2019-04-23T18:20:44.167Z,14.90
2019-04-23T18:23:15.164Z,17.92
2019-04-23T18:26:05.419Z,17.15
2019-04-23T18:28:37.635Z,12.33
2019-04-23T18:36:37.144Z,14.10
2019-04-23T18:39:26.314Z,18.15
2019-04-23T18:41:57.941Z,15.83
2019-04-23T18:44:31.830Z,14.75
2019-04-23T18:47:00.429Z,11.70
2019-04-23T18:49:36.638Z,11.25
2019-04-23T18:51:58.218Z,12.43
2019-04-23T18:54:28.418Z,27.77
2019-04-23T18:57:09.841Z,14.23
2019-04-23T19:00:07.480Z,11.88
2019-04-23T19:02:35.436Z,17.40
2019-04-23T19:05:07.233Z,15.45
2019-04-23T19:10:30.487Z,18.05
2019-04-23T19:13:12.628Z,20.48
2019-04-23T19:15:45.905Z,19.67
2019-04-23T19:18:12.552Z,15.95
2019-04-23T19:23:35.192Z,16.57
2019-04-23T19:25:48.270Z,19.50
2019-04-23T19:31:31.365Z,11.40
2019-04-23T19:41:55.422Z,19.80
2019-04-23T19:44:27.901Z,15.93
2019-04-23T19:49:28.850Z,20.62
2019-04-23T19:51:58.514Z,13.90
2019-04-23T19:54:34.008Z,15.40
2019-04-23T20:02:09.579Z,17.37
2019-04-23T20:14:48.810Z,14.15
2019-04-23T20:19:48.215Z,14.80
2019-04-23T20:25:10.012Z,18.82
2019-04-23T20:27:25.967Z,18.30
2019-04-23T20:30:51.004Z,11.40
2019-04-23T20:33:27.924Z,17.12
2019-04-23T20:35:24.246Z,13.72
2019-04-23T20:43:05.713Z,17.42
2019-04-23T20:45:39.628Z,18.85
2019-04-23T20:48:04.796Z,18.57
2019-04-23T20:50:41.028Z,20.17
2019-04-23T20:53:09.234Z,22.48
2019-04-23T20:56:04.877Z,19.02
2019-04-23T21:01:22.344Z,23.90
2019-04-23T21:03:49.140Z,14.58
2019-04-23T21:06:18.882Z,18.48
2019-04-23T21:09:14.909Z,17.77
2019-04-23T21:11:29.073Z,24.63
2019-04-23T21:14:12.459Z,13.75
2019-04-23T21:16:32.763Z,14.58
2019-04-23T21:18:55.606Z,15.23
2019-04-23T21:21:33.832Z,15.78
2019-04-23T21:24:01.325Z,22.55
2019-04-23T21:26:46.057Z,20.02
2019-04-23T21:29:07.443Z,16.32
2019-04-23T21:32:09.314Z,20.82
2019-04-23T21:34:21.572Z,14.53
2019-04-23T21:36:50.942Z,21.90
2019-04-23T21:39:40.757Z,17.25
2019-04-23T21:42:14.089Z,15.53
2019-04-23T21:44:41.974Z,15.78
2019-04-23T21:47:40.294Z,19.50
2019-04-23T21:50:03.159Z,14.73
2019-04-23T21:52:17.944Z,25.50
2019-04-23T21:54:58.760Z,14.68
2019-04-23T21:57:24.468Z,19.75
2019-04-23T21:59:55.818Z,16.82
2019-04-23T22:02:28.587Z,13.38
2019-04-23T22:05:01.191Z,20.85
2019-04-23T22:07:50.131Z,18.75
2019-04-23T22:10:15.718Z,14.43
2019-04-23T22:12:46.809Z,15.23
2019-04-23T22:15:04.756Z,13.15
2019-04-23T22:17:46.289Z,15.55
2019-04-23T22:20:17.690Z,11.65
2019-04-23T22:22:57.197Z,15.25
2019-04-23T22:25:13.123Z,16.37
2019-04-23T22:27:54.783Z,12.58
2019-04-23T22:30:31.468Z,13.28
2019-04-23T22:33:04.024Z,17.40
2019-04-23T22:35:30.501Z,18.62
2019-04-23T22:38:18.783Z,13.15
2019-04-23T22:40:37.406Z,11.20
2019-04-23T22:43:14.737Z,12.25
2019-04-23T22:45:44.427Z,16.00
2019-04-23T22:48:18.020Z,17.37
2019-04-23T22:50:59.344Z,17.35
2019-04-23T22:55:57.675Z,17.12
2019-04-23T22:58:27.640Z,10.58
2019-04-23T23:03:51.182Z,14.78
2019-04-23T23:06:23.085Z,13.00
2019-04-23T23:08:59.879Z,17.42
2019-04-23T23:11:14.146Z,14.58
2019-04-23T23:14:09.663Z,10.78
2019-04-23T23:16:28.382Z,13.25
2019-04-23T23:19:03.957Z,17.12
2019-04-23T23:21:38.143Z,12.20
2019-04-23T23:26:42.185Z,18.95
2019-04-23T23:29:06.358Z,14.63
2019-04-23T23:31:43.929Z,10.88
2019-04-23T23:39:25.056Z,13.10
2019-04-23T23:44:54.542Z,17.25
2019-04-23T23:47:03.102Z,13.15
2019-04-23T23:49:27.819Z,14.65
2019-04-23T23:51:58.295Z,10.28
2019-04-23T23:54:26.618Z,12.98
